sensor_id;sensor_type;location;lat;lon;timestamp;P1;durP1;ratioP1;P2;durP2;ratioP2
13687;SDS011;6916;51.504;7.416;2023-01-19T00:01:54;7.90;;;6.40;;
13687;SDS011;6916;51.504;7.416;2023-01-19T00:11:56;9.43;;;7.30;;
13687;SDS011;6916;51.504;7.416;2023-01-19T00:21:58;9.60;;;5.87;;
13687;SDS011;6916;51.504;7.416;2023-01-19T00:32:01;7.63;;;6.60;;
13687;SDS011;6916;51.504;7.416;2023-01-19T00:42:05;6.80;;;5.80;;
13687;SDS011;6916;51.504;7.416;2023-01-19T00:52:26;8.43;;;6.37;;
13687;SDS011;6916;51.504;7.416;2023-01-19T01:02:28;9.07;;;6.30;;
13687;SDS011;6916;51.504;7.416;2023-01-19T01:12:31;5.93;;;5.33;;
13687;SDS011;6916;51.504;7.416;2023-01-19T01:22:33;9.57;;;7.23;;
13687;SDS011;6916;51.504;7.416;2023-01-19T01:32:35;6.60;;;5.73;;
13687;SDS011;6916;51.504;7.416;2023-01-19T01:42:37;7.33;;;6.43;;
13687;SDS011;6916;51.504;7.416;2023-01-19T01:52:43;11.13;;;6.53;;
13687;SDS011;6916;51.504;7.416;2023-01-19T02:03:09;8.63;;;6.37;;
13687;SDS011;6916;51.504;7.416;2023-01-19T02:13:11;7.03;;;6.33;;
13687;SDS011;6916;51.504;7.416;2023-01-19T02:23:32;8.63;;;6.67;;
13687;SDS011;6916;51.504;7.416;2023-01-19T02:33:38;8.83;;;6.60;;
13687;SDS011;6916;51.504;7.416;2023-01-19T02:43:41;7.57;;;6.43;;
13687;SDS011;6916;51.504;7.416;2023-01-19T02:53:49;7.83;;;6.27;;
13687;SDS011;6916;51.504;7.416;2023-01-19T03:04:08;10.43;;;6.30;;
13687;SDS011;6916;51.504;7.416;2023-01-19T03:14:15;7.90;;;6.30;;
13687;SDS011;6916;51.504;7.416;2023-01-19T03:24:22;6.53;;;4.47;;
13687;SDS011;6916;51.504;7.416;2023-01-19T03:34:26;9.23;;;5.70;;
13687;SDS011;6916;51.504;7.416;2023-01-19T03:44:29;5.90;;;5.30;;
13687;SDS011;6916;51.504;7.416;2023-01-19T03:54:33;8.93;;;5.00;;
13687;SDS011;6916;51.504;7.416;2023-01-19T04:04:35;6.73;;;5.30;;
13687;SDS011;6916;51.504;7.416;2023-01-19T04:14:37;6.00;;;4.50;;
13687;SDS011;6916;51.504;7.416;2023-01-19T04:24:41;7.07;;;4.87;;
13687;SDS011;6916;51.504;7.416;2023-01-19T04:34:43;7.67;;;5.37;;
13687;SDS011;6916;51.504;7.416;2023-01-19T04:44:45;6.93;;;5.07;;
13687;SDS011;6916;51.504;7.416;2023-01-19T04:54:47;8.00;;;5.03;;
13687;SDS011;6916;51.504;7.416;2023-01-19T05:04:50;5.90;;;4.90;;
13687;SDS011;6916;51.504;7.416;2023-01-19T05:14:52;6.33;;;5.37;;
13687;SDS011;6916;51.504;7.416;2023-01-19T05:24:54;7.33;;;5.10;;
13687;SDS011;6916;51.504;7.416;2023-01-19T05:34:57;6.43;;;5.40;;
13687;SDS011;6916;51.504;7.416;2023-01-19T05:44:59;6.23;;;4.90;;
13687;SDS011;6916;51.504;7.416;2023-01-19T05:55:01;5.67;;;5.07;;
13687;SDS011;6916;51.504;7.416;2023-01-19T06:05:03;6.07;;;5.10;;
13687;SDS011;6916;51.504;7.416;2023-01-19T06:15:06;6.73;;;5.03;;
13687;SDS011;6916;51.504;7.416;2023-01-19T06:25:09;7.43;;;4.47;;
13687;SDS011;6916;51.504;7.416;2023-01-19T06:35:11;5.37;;;4.00;;
13687;SDS011;6916;51.504;7.416;2023-01-19T06:45:14;3.73;;;3.43;;
13687;SDS011;6916;51.504;7.416;2023-01-19T06:55:17;3.77;;;3.30;;
13687;SDS011;6916;51.504;7.416;2023-01-19T07:05:20;3.80;;;2.93;;
13687;SDS011;6916;51.504;7.416;2023-01-19T07:15:22;3.23;;;2.87;;
13687;SDS011;6916;51.504;7.416;2023-01-19T07:25:25;2.93;;;2.60;;
13687;SDS011;6916;51.504;7.416;2023-01-19T07:35:28;2.90;;;2.37;;
13687;SDS011;6916;51.504;7.416;2023-01-19T07:45:30;2.40;;;2.20;;
13687;SDS011;6916;51.504;7.416;2023-01-19T07:55:32;4.97;;;3.23;;
13687;SDS011;6916;51.504;7.416;2023-01-19T08:05:34;5.60;;;4.27;;
13687;SDS011;6916;51.504;7.416;2023-01-19T08:15:37;8.10;;;5.33;;
13687;SDS011;6916;51.504;7.416;2023-01-19T08:25:40;10.77;;;6.63;;
13687;SDS011;6916;51.504;7.416;2023-01-19T08:35:49;9.20;;;7.90;;
13687;SDS011;6916;51.504;7.416;2023-01-19T08:45:53;8.53;;;6.70;;
13687;SDS011;6916;51.504;7.416;2023-01-19T08:55:57;8.70;;;6.27;;
13687;SDS011;6916;51.504;7.416;2023-01-19T09:06:06;12.33;;;7.97;;
13687;SDS011;6916;51.504;7.416;2023-01-19T09:16:09;11.27;;;9.03;;
13687;SDS011;6916;51.504;7.416;2023-01-19T09:26:13;12.07;;;9.23;;
13687;SDS011;6916;51.504;7.416;2023-01-19T09:36:16;13.50;;;10.63;;
13687;SDS011;6916;51.504;7.416;2023-01-19T09:46:20;14.67;;;11.53;;
13687;SDS011;6916;51.504;7.416;2023-01-19T09:56:25;21.07;;;13.23;;
13687;SDS011;6916;51.504;7.416;2023-01-19T10:06:28;21.47;;;13.40;;
13687;SDS011;6916;51.504;7.416;2023-01-19T10:26:53;18.27;;;14.03;;
13687;SDS011;6916;51.504;7.416;2023-01-19T10:37:01;16.47;;;13.60;;
13687;SDS011;6916;51.504;7.416;2023-01-19T10:47:05;20.67;;;14.03;;
13687;SDS011;6916;51.504;7.416;2023-01-19T10:57:24;21.77;;;16.13;;
13687;SDS011;6916;51.504;7.416;2023-01-19T11:07:31;25.00;;;16.43;;
13687;SDS011;6916;51.504;7.416;2023-01-19T11:17:34;25.07;;;17.33;;
13687;SDS011;6916;51.504;7.416;2023-01-19T11:27:36;24.27;;;17.43;;
13687;SDS011;6916;51.504;7.416;2023-01-19T11:37:39;27.43;;;18.30;;
13687;SDS011;6916;51.504;7.416;2023-01-19T11:47:44;34.77;;;17.93;;
13687;SDS011;6916;51.504;7.416;2023-01-19T11:57:50;27.83;;;17.67;;
13687;SDS011;6916;51.504;7.416;2023-01-19T12:07:55;30.63;;;19.27;;
13687;SDS011;6916;51.504;7.416;2023-01-19T12:18:00;35.27;;;17.83;;
13687;SDS011;6916;51.504;7.416;2023-01-19T12:28:05;31.23;;;19.30;;
13687;SDS011;6916;51.504;7.416;2023-01-19T12:48:45;30.30;;;20.43;;
13687;SDS011;6916;51.504;7.416;2023-01-19T12:58:47;36.50;;;21.60;;
13687;SDS011;6916;51.504;7.416;2023-01-19T13:08:58;28.43;;;18.87;;
13687;SDS011;6916;51.504;7.416;2023-01-19T13:19:07;35.20;;;19.53;;
13687;SDS011;6916;51.504;7.416;2023-01-19T13:29:23;26.40;;;17.93;;
13687;SDS011;6916;51.504;7.416;2023-01-19T13:39:35;36.30;;;19.80;;
13687;SDS011;6916;51.504;7.416;2023-01-19T13:49:39;28.27;;;18.07;;
13687;SDS011;6916;51.504;7.416;2023-01-19T13:59:59;29.73;;;18.27;;
13687;SDS011;6916;51.504;7.416;2023-01-19T14:10:21;27.60;;;18.27;;
13687;SDS011;6916;51.504;7.416;2023-01-19T14:20:28;31.70;;;18.30;;
13687;SDS011;6916;51.504;7.416;2023-01-19T14:30:31;28.13;;;16.77;;
13687;SDS011;6916;51.504;7.416;2023-01-19T14:40:35;33.50;;;17.37;;
13687;SDS011;6916;51.504;7.416;2023-01-19T14:50:39;24.93;;;15.53;;
13687;SDS011;6916;51.504;7.416;2023-01-19T15:00:47;23.87;;;14.77;;
13687;SDS011;6916;51.504;7.416;2023-01-19T15:10:50;22.67;;;14.37;;
13687;SDS011;6916;51.504;7.416;2023-01-19T15:20:53;23.70;;;12.90;;
13687;SDS011;6916;51.504;7.416;2023-01-19T15:31:03;20.87;;;11.90;;
13687;SDS011;6916;51.504;7.416;2023-01-19T15:41:13;25.57;;;12.73;;
13687;SDS011;6916;51.504;7.416;2023-01-19T15:51:25;16.23;;;11.23;;
13687;SDS011;6916;51.504;7.416;2023-01-19T16:01:29;16.90;;;10.83;;
13687;SDS011;6916;51.504;7.416;2023-01-19T16:11:36;16.00;;;10.93;;
13687;SDS011;6916;51.504;7.416;2023-01-19T16:21:40;16.40;;;9.93;;
13687;SDS011;6916;51.504;7.416;2023-01-19T16:31:44;19.57;;;10.73;;
13687;SDS011;6916;51.504;7.416;2023-01-19T16:41:47;19.20;;;10.60;;
13687;SDS011;6916;51.504;7.416;2023-01-19T16:51:50;16.73;;;10.03;;
13687;SDS011;6916;51.504;7.416;2023-01-19T17:01:54;17.37;;;9.63;;
13687;SDS011;6916;51.504;7.416;2023-01-19T17:12:02;12.73;;;9.27;;
13687;SDS011;6916;51.504;7.416;2023-01-19T17:22:05;15.33;;;9.40;;
13687;SDS011;6916;51.504;7.416;2023-01-19T17:32:11;15.80;;;9.97;;
13687;SDS011;6916;51.504;7.416;2023-01-19T17:42:13;17.47;;;10.93;;
13687;SDS011;6916;51.504;7.416;2023-01-19T17:52:17;15.60;;;10.50;;
13687;SDS011;6916;51.504;7.416;2023-01-19T18:02:19;17.50;;;11.03;;
13687;SDS011;6916;51.504;7.416;2023-01-19T18:12:25;19.97;;;11.90;;
13687;SDS011;6916;51.504;7.416;2023-01-19T18:22:27;16.30;;;10.60;;
13687;SDS011;6916;51.504;7.416;2023-01-19T18:32:29;17.13;;;12.40;;
13687;SDS011;6916;51.504;7.416;2023-01-19T18:42:32;15.57;;;10.57;;
13687;SDS011;6916;51.504;7.416;2023-01-19T18:52:34;19.03;;;10.50;;
13687;SDS011;6916;51.504;7.416;2023-01-19T19:02:37;15.50;;;11.60;;
13687;SDS011;6916;51.504;7.416;2023-01-19T19:12:39;24.47;;;14.03;;
13687;SDS011;6916;51.504;7.416;2023-01-19T19:22:41;18.10;;;11.97;;
13687;SDS011;6916;51.504;7.416;2023-01-19T19:32:50;16.33;;;11.20;;
13687;SDS011;6916;51.504;7.416;2023-01-19T19:42:53;18.47;;;12.60;;
13687;SDS011;6916;51.504;7.416;2023-01-19T19:52:59;17.53;;;11.73;;
13687;SDS011;6916;51.504;7.416;2023-01-19T20:03:01;15.23;;;10.20;;
13687;SDS011;6916;51.504;7.416;2023-01-19T20:13:03;15.70;;;10.37;;
13687;SDS011;6916;51.504;7.416;2023-01-19T20:23:09;18.87;;;10.93;;
13687;SDS011;6916;51.504;7.416;2023-01-19T20:33:11;16.90;;;11.23;;
13687;SDS011;6916;51.504;7.416;2023-01-19T20:43:14;18.03;;;11.47;;
13687;SDS011;6916;51.504;7.416;2023-01-19T20:53:17;14.50;;;11.00;;
13687;SDS011;6916;51.504;7.416;2023-01-19T21:03:19;15.53;;;11.03;;
13687;SDS011;6916;51.504;7.416;2023-01-19T21:13:22;18.10;;;11.97;;
13687;SDS011;6916;51.504;7.416;2023-01-19T21:23:41;19.87;;;11.33;;
13687;SDS011;6916;51.504;7.416;2023-01-19T21:33:46;16.03;;;11.70;;
13687;SDS011;6916;51.504;7.416;2023-01-19T21:43:50;18.13;;;11.73;;
13687;SDS011;6916;51.504;7.416;2023-01-19T21:53:53;16.53;;;11.07;;
13687;SDS011;6916;51.504;7.416;2023-01-19T22:04:00;18.67;;;11.17;;
13687;SDS011;6916;51.504;7.416;2023-01-19T22:14:02;18.17;;;11.60;;
13687;SDS011;6916;51.504;7.416;2023-01-19T22:24:07;13.53;;;10.70;;
13687;SDS011;6916;51.504;7.416;2023-01-19T22:34:09;14.30;;;10.67;;
13687;SDS011;6916;51.504;7.416;2023-01-19T22:44:16;17.73;;;11.80;;
13687;SDS011;6916;51.504;7.416;2023-01-19T22:54:21;19.23;;;13.00;;
13687;SDS011;6916;51.504;7.416;2023-01-19T23:04:24;16.63;;;11.93;;
13687;SDS011;6916;51.504;7.416;2023-01-19T23:14:26;20.00;;;11.57;;
13687;SDS011;6916;51.504;7.416;2023-01-19T23:24:30;21.87;;;12.77;;
13687;SDS011;6916;51.504;7.416;2023-01-19T23:34:32;20.40;;;13.37;;
13687;SDS011;6916;51.504;7.416;2023-01-19T23:44:34;23.27;;;13.67;;
13687;SDS011;6916;51.504;7.416;2023-01-19T23:54:36;29.43;;;16.00;;
